createdAt,value
2023-05-02T00:01:36.162Z,3.45
2023-05-02T00:04:02.779Z,4.60
2023-05-02T00:06:31.758Z,4.75
2023-05-02T00:08:58.647Z,5.00
2023-05-02T00:11:25.255Z,4.63
2023-05-02T00:13:51.973Z,4.18
2023-05-02T00:16:18.527Z,8.20
2023-05-02T00:18:45.041Z,6.22
2023-05-02T00:21:11.531Z,4.30
2023-05-02T00:23:41.072Z,6.85
2023-05-02T00:26:10.674Z,3.40
2023-05-02T00:28:40.714Z,3.42
2023-05-02T00:31:07.417Z,4.60
2023-05-02T00:33:34.075Z,5.43
2023-05-02T00:36:00.669Z,3.47
2023-05-02T00:38:27.237Z,7.70
2023-05-02T00:40:53.820Z,5.55
2023-05-02T00:43:21.337Z,6.30
2023-05-02T00:45:48.226Z,6.25
2023-05-02T00:48:15.009Z,3.45
2023-05-02T00:50:42.941Z,6.03
2023-05-02T00:53:10.491Z,5.32
2023-05-02T00:55:37.304Z,3.75
2023-05-02T00:58:07.269Z,9.30
2023-05-02T01:00:43.354Z,3.83
2023-05-02T01:03:25.083Z,6.00
2023-05-02T01:06:21.511Z,4.18
2023-05-02T01:09:00.493Z,6.18
2023-05-02T01:11:42.138Z,5.50
2023-05-02T01:14:11.053Z,4.18
2023-05-02T01:16:42.082Z,7.68
2023-05-02T01:19:19.744Z,4.10
2023-05-02T01:21:48.423Z,5.15
2023-05-02T01:24:22.551Z,5.13
2023-05-02T01:27:05.101Z,4.93
2023-05-02T01:29:33.280Z,3.60
2023-05-02T01:32:02.918Z,3.60
2023-05-02T01:34:31.156Z,4.55
2023-05-02T01:37:18.911Z,3.25
2023-05-02T01:40:07.670Z,6.00
2023-05-02T01:42:57.245Z,5.07
2023-05-02T01:45:45.494Z,3.15
2023-05-02T01:48:32.694Z,7.40
2023-05-02T01:51:21.427Z,4.95
2023-05-02T01:53:50.451Z,5.05
2023-05-02T01:56:19.721Z,4.05
2023-05-02T01:58:48.475Z,4.68
2023-05-02T02:01:16.279Z,3.75
2023-05-02T02:03:44.134Z,4.80
2023-05-02T02:06:12.354Z,5.70
2023-05-02T02:08:39.039Z,7.38
2023-05-02T02:11:12.040Z,5.00
2023-05-02T02:13:45.219Z,5.35
2023-05-02T02:16:19.059Z,8.32
2023-05-02T02:18:46.699Z,4.30
2023-05-02T02:21:18.004Z,4.40
2023-05-02T02:23:48.407Z,5.55
2023-05-02T02:28:43.509Z,5.50
2023-05-02T02:31:10.522Z,3.13
2023-05-02T02:33:38.009Z,6.35
2023-05-02T02:36:49.988Z,5.88
2023-05-02T02:39:43.992Z,6.55
2023-05-02T02:42:29.530Z,7.07
2023-05-02T02:45:17.117Z,3.58
2023-05-02T02:47:59.147Z,6.05
2023-05-02T02:50:42.809Z,7.35
2023-05-02T02:53:17.934Z,7.35
2023-05-02T02:55:57.693Z,5.35
2023-05-02T02:58:43.407Z,4.72
2023-05-02T03:01:15.936Z,7.88
2023-05-02T03:03:44.384Z,5.97
2023-05-02T03:06:11.580Z,11.60
2023-05-02T03:08:42.888Z,7.90
2023-05-02T03:11:14.088Z,11.27
2023-05-02T03:13:41.448Z,5.65
2023-05-02T03:16:24.996Z,4.13
2023-05-02T03:18:51.571Z,4.72
2023-05-02T03:21:18.470Z,4.00
2023-05-02T03:23:45.369Z,4.72
2023-05-02T03:26:12.200Z,4.30
2023-05-02T03:28:39.102Z,5.25
2023-05-02T03:31:06.670Z,5.97
2023-05-02T03:36:03.812Z,7.38
2023-05-02T03:38:30.659Z,5.72
2023-05-02T03:41:01.389Z,8.63
2023-05-02T03:43:28.627Z,7.90
2023-05-02T03:45:55.811Z,7.85
2023-05-02T03:48:23.075Z,5.45
2023-05-02T03:50:51.103Z,8.02
2023-05-02T03:53:18.162Z,7.68
2023-05-02T03:55:52.554Z,5.97
2023-05-02T03:58:27.080Z,5.05
2023-05-02T04:00:54.759Z,7.40
2023-05-02T04:03:22.580Z,5.45
2023-05-02T04:05:51.599Z,7.95
2023-05-02T04:08:18.987Z,7.10
2023-05-02T04:10:46.435Z,4.40
2023-05-02T04:13:13.774Z,8.75
2023-05-02T04:15:45.470Z,9.50
2023-05-02T04:18:13.503Z,8.48
2023-05-02T04:20:44.104Z,9.85
2023-05-02T04:23:10.668Z,7.30
2023-05-02T04:25:38.096Z,6.32
2023-05-02T04:28:06.073Z,5.97
2023-05-02T04:30:33.017Z,7.45
2023-05-02T04:33:07.520Z,7.15
2023-05-02T04:35:39.870Z,5.60
2023-05-02T04:38:07.476Z,10.63
2023-05-02T04:40:34.470Z,11.75
2023-05-02T04:43:04.805Z,5.05
2023-05-02T04:45:51.839Z,5.72
2023-05-02T04:48:26.782Z,10.27
2023-05-02T04:50:53.653Z,8.77
2023-05-02T04:53:24.078Z,6.85
2023-05-02T04:55:50.963Z,9.07
2023-05-02T04:58:17.585Z,6.28
2023-05-02T05:03:14.639Z,10.32
2023-05-02T05:05:41.148Z,9.68
2023-05-02T05:08:12.036Z,11.20
2023-05-02T05:10:40.388Z,7.53
2023-05-02T05:13:08.116Z,9.63
2023-05-02T05:15:34.621Z,10.27
2023-05-02T05:18:03.323Z,10.77
2023-05-02T05:20:30.048Z,9.45
2023-05-02T05:22:59.815Z,9.45
2023-05-02T05:25:29.814Z,12.15
2023-05-02T05:27:59.973Z,13.90
2023-05-02T05:30:27.201Z,12.40
2023-05-02T05:32:53.952Z,10.50
2023-05-02T05:35:21.422Z,10.82
2023-05-02T05:37:47.879Z,14.32
2023-05-02T05:40:17.083Z,15.43
2023-05-02T05:42:48.051Z,19.77
2023-05-02T05:45:22.667Z,16.58
2023-05-02T05:47:49.152Z,17.38
2023-05-02T05:50:16.206Z,14.85
2023-05-02T05:52:44.488Z,16.67
2023-05-02T05:55:11.287Z,15.43
2023-05-02T05:57:38.056Z,19.17
2023-05-02T06:00:05.480Z,16.48
2023-05-02T06:02:42.569Z,15.18
2023-05-02T06:05:15.725Z,16.05
2023-05-02T06:07:42.701Z,14.45
2023-05-02T06:10:10.949Z,17.90
2023-05-02T06:12:39.393Z,17.60
2023-05-02T06:15:07.587Z,17.25
2023-05-02T06:17:35.042Z,19.63
2023-05-02T06:20:01.832Z,20.55
2023-05-02T06:22:31.503Z,18.35
2023-05-02T06:24:58.123Z,18.08
2023-05-02T06:27:24.715Z,21.13
2023-05-02T06:29:52.389Z,18.30
2023-05-02T06:32:19.157Z,22.13
2023-05-02T06:34:46.215Z,20.73
2023-05-02T06:37:13.072Z,19.08
2023-05-02T06:39:39.433Z,18.20
2023-05-02T06:42:06.093Z,20.90
2023-05-02T06:44:33.697Z,22.70
2023-05-02T06:47:00.492Z,26.77
2023-05-02T06:49:27.057Z,25.95
2023-05-02T06:51:53.697Z,27.20
2023-05-02T06:54:21.882Z,23.58
2023-05-02T06:56:48.360Z,27.73
2023-05-02T06:59:16.939Z,26.23
2023-05-02T07:01:43.963Z,31.33
2023-05-02T07:04:10.922Z,26.27
2023-05-02T07:06:37.454Z,28.85
2023-05-02T07:09:04.156Z,35.30
2023-05-02T07:11:30.921Z,32.42
2023-05-02T07:13:57.885Z,32.03
2023-05-02T07:16:24.509Z,27.35
2023-05-02T07:18:51.077Z,30.48
2023-05-02T07:21:19.021Z,29.52
2023-05-02T07:23:45.788Z,28.90
2023-05-02T07:26:12.345Z,27.05
2023-05-02T07:28:39.075Z,28.83
2023-05-02T07:31:05.845Z,35.75
2023-05-02T07:33:32.524Z,35.80
2023-05-02T07:35:59.183Z,34.05
2023-05-02T07:38:27.806Z,33.20
2023-05-02T07:40:58.581Z,35.60
2023-05-02T07:43:25.250Z,32.47
2023-05-02T07:45:51.671Z,39.13
2023-05-02T07:48:18.441Z,39.55
2023-05-02T07:50:45.372Z,37.60
2023-05-02T07:53:12.340Z,41.55
2023-05-02T07:55:38.858Z,40.28
2023-05-02T07:58:05.295Z,38.60
2023-05-02T08:00:32.070Z,38.42
2023-05-02T08:02:58.578Z,41.15
2023-05-02T08:05:25.117Z,38.15
2023-05-02T08:07:51.616Z,36.70
2023-05-02T08:10:18.429Z,41.97
2023-05-02T08:12:44.829Z,40.97
2023-05-02T08:15:13.426Z,38.67
2023-05-02T08:17:39.891Z,41.15
2023-05-02T08:20:07.122Z,42.20
2023-05-02T08:22:33.709Z,39.78
2023-05-02T08:25:00.366Z,41.50
2023-05-02T08:27:26.904Z,40.65
2023-05-02T08:29:53.438Z,33.80
2023-05-02T08:32:19.854Z,33.25
2023-05-02T08:34:46.567Z,34.38
2023-05-02T08:37:13.359Z,30.10
2023-05-02T08:39:39.905Z,30.25
2023-05-02T08:42:07.888Z,35.92
2023-05-02T08:44:34.549Z,32.00
2023-05-02T08:47:02.886Z,33.45
2023-05-02T08:49:31.926Z,37.88
2023-05-02T08:52:00.107Z,32.90
2023-05-02T08:54:27.120Z,33.47
2023-05-02T08:56:59.320Z,30.25
2023-05-02T08:59:26.054Z,36.28
2023-05-02T09:01:58.923Z,36.83
2023-05-02T09:04:31.861Z,30.17
2023-05-02T09:06:58.491Z,26.60
2023-05-02T09:09:25.875Z,29.67
2023-05-02T09:11:52.824Z,29.77
2023-05-02T09:14:19.636Z,32.05
2023-05-02T09:16:47.453Z,32.67
2023-05-02T09:19:26.096Z,28.50
2023-05-02T09:21:52.743Z,32.05
2023-05-02T09:24:21.206Z,29.23
2023-05-02T09:26:58.820Z,29.02
2023-05-02T09:29:28.685Z,32.65
2023-05-02T09:31:56.673Z,31.50
2023-05-02T09:34:24.076Z,32.40
2023-05-02T09:36:52.273Z,30.80
2023-05-02T09:39:23.043Z,30.45
2023-05-02T09:41:52.264Z,32.13
2023-05-02T09:44:21.873Z,29.35
2023-05-02T09:46:57.609Z,33.25
2023-05-02T09:49:42.339Z,28.85
2023-05-02T09:52:16.008Z,21.30
2023-05-02T09:54:42.971Z,24.70
2023-05-02T09:57:11.022Z,25.65
2023-05-02T09:59:39.864Z,21.80
2023-05-02T10:02:07.595Z,23.85
2023-05-02T10:04:34.796Z,20.33
2023-05-02T10:07:03.316Z,21.30
2023-05-02T10:09:33.920Z,21.92
2023-05-02T10:12:05.135Z,22.75
2023-05-02T10:14:39.012Z,19.75
2023-05-02T10:17:13.309Z,22.70
2023-05-02T10:20:07.412Z,19.02
2023-05-02T10:22:35.222Z,22.33
2023-05-02T10:25:03.015Z,23.83
2023-05-02T10:27:32.426Z,20.90
2023-05-02T10:30:00.521Z,28.05
2023-05-02T10:32:31.678Z,25.58
2023-05-02T10:35:05.986Z,23.83
2023-05-02T10:37:36.340Z,17.23
2023-05-02T10:40:03.673Z,17.65
2023-05-02T10:42:31.311Z,24.10
2023-05-02T10:44:58.450Z,22.52
2023-05-02T10:47:27.246Z,17.23
2023-05-02T10:49:56.709Z,19.13
2023-05-02T10:52:31.619Z,18.77
2023-05-02T10:55:19.923Z,19.25
2023-05-02T10:58:22.619Z,18.13
2023-05-02T11:00:49.332Z,15.93
2023-05-02T11:03:55.055Z,14.77
2023-05-02T11:06:21.657Z,15.02
2023-05-02T11:08:48.242Z,17.88
2023-05-02T11:11:44.018Z,17.73
2023-05-02T11:14:12.804Z,17.70
2023-05-02T11:16:59.782Z,14.73
2023-05-02T11:19:31.349Z,19.65
2023-05-02T11:22:20.714Z,14.45
2023-05-02T11:24:48.514Z,16.23
2023-05-02T11:27:30.822Z,15.52
2023-05-02T11:29:59.504Z,23.35
2023-05-02T11:32:46.715Z,12.38
2023-05-02T11:35:26.976Z,13.57
2023-05-02T11:37:57.244Z,11.95
2023-05-02T11:42:51.187Z,14.55
2023-05-02T11:45:18.836Z,11.93
2023-05-02T11:47:46.393Z,19.58
2023-05-02T11:50:13.024Z,12.85
2023-05-02T11:52:41.475Z,12.25
2023-05-02T11:55:11.870Z,12.90
2023-05-02T11:57:39.587Z,10.05
2023-05-02T12:00:07.805Z,11.35
2023-05-02T12:02:42.694Z,12.20
2023-05-02T12:05:11.627Z,11.02
2023-05-02T12:07:46.309Z,10.50
2023-05-02T12:10:13.867Z,11.43
2023-05-02T12:12:44.749Z,13.68
2023-05-02T12:15:12.618Z,10.00
2023-05-02T12:17:42.724Z,8.32
2023-05-02T12:20:10.538Z,8.65
2023-05-02T12:22:38.006Z,9.35
2023-05-02T12:25:06.290Z,10.23
2023-05-02T12:27:36.005Z,10.45
2023-05-02T12:30:03.255Z,12.02
2023-05-02T12:32:35.047Z,11.55
2023-05-02T12:35:03.785Z,10.90
2023-05-02T12:37:30.344Z,17.10
2023-05-02T12:39:57.106Z,12.65
2023-05-02T12:42:25.386Z,14.30
2023-05-02T12:44:53.302Z,12.18
2023-05-02T12:47:21.679Z,11.27
2023-05-02T12:49:56.882Z,13.30
2023-05-02T12:52:46.945Z,10.88
2023-05-02T12:55:16.572Z,14.73
2023-05-02T12:57:43.460Z,10.02
2023-05-02T13:00:10.569Z,10.32
2023-05-02T13:02:37.206Z,8.68
2023-05-02T13:05:14.658Z,10.57
2023-05-02T13:07:41.314Z,7.40
2023-05-02T13:10:08.086Z,8.38
2023-05-02T13:12:37.252Z,6.88
2023-05-02T13:15:08.288Z,6.75
2023-05-02T13:17:35.570Z,7.35
2023-05-02T13:20:02.766Z,8.55
2023-05-02T13:22:29.489Z,8.93
2023-05-02T13:24:55.924Z,6.63
2023-05-02T13:27:23.802Z,8.63
2023-05-02T13:29:50.475Z,7.15
2023-05-02T13:32:17.527Z,10.68
2023-05-02T13:34:44.558Z,8.02
2023-05-02T13:37:11.558Z,6.07
2023-05-02T13:39:37.973Z,7.80
2023-05-02T13:42:05.959Z,5.57
2023-05-02T13:44:32.823Z,6.28
2023-05-02T13:46:59.235Z,4.28
2023-05-02T13:49:25.971Z,6.90
2023-05-02T13:51:52.452Z,3.00
2023-05-02T13:54:19.033Z,2.42
2023-05-02T13:56:45.685Z,3.25
2023-05-02T13:59:12.089Z,4.45
2023-05-02T14:01:40.505Z,8.32
2023-05-02T14:04:08.553Z,5.53
2023-05-02T14:06:35.959Z,8.40
2023-05-02T14:09:03.189Z,6.68
2023-05-02T14:11:29.943Z,4.40
2023-05-02T14:13:58.356Z,4.22
2023-05-02T14:16:25.204Z,9.50
2023-05-02T14:18:51.852Z,8.23
2023-05-02T14:21:18.281Z,9.20
2023-05-02T14:23:44.853Z,9.60
2023-05-02T14:26:11.396Z,7.47
2023-05-02T14:28:39.130Z,9.23
2023-05-02T14:31:07.162Z,11.38
2023-05-02T14:33:33.796Z,7.40
2023-05-02T14:36:00.296Z,8.27
2023-05-02T14:38:27.044Z,11.20
2023-05-02T14:40:53.940Z,7.30
2023-05-02T14:43:21.343Z,8.43
2023-05-02T14:45:48.089Z,7.78
2023-05-02T14:48:16.841Z,6.55
2023-05-02T14:50:44.191Z,6.38
2023-05-02T14:53:11.592Z,6.13
2023-05-02T14:55:39.649Z,5.40
2023-05-02T14:58:08.692Z,5.55
2023-05-02T15:00:37.838Z,5.40
2023-05-02T15:03:07.576Z,3.97
2023-05-02T15:05:37.150Z,6.15
2023-05-02T15:08:03.879Z,4.93
2023-05-02T15:10:30.782Z,4.65
2023-05-02T15:12:57.374Z,3.25
2023-05-02T15:15:25.352Z,4.97
2023-05-02T15:17:53.132Z,5.18
2023-05-02T15:20:20.103Z,3.90
2023-05-02T15:22:47.051Z,3.38
2023-05-02T15:25:13.522Z,3.35
2023-05-02T15:27:40.114Z,5.38
2023-05-02T15:30:07.424Z,4.05
2023-05-02T15:32:34.063Z,4.07
2023-05-02T15:35:00.799Z,6.03
2023-05-02T15:37:27.432Z,6.38
2023-05-02T15:39:54.039Z,4.07
2023-05-02T15:42:20.999Z,5.05
2023-05-02T15:44:47.465Z,10.63
2023-05-02T15:47:14.419Z,5.22
2023-05-02T15:49:41.414Z,7.13
2023-05-02T15:52:08.177Z,6.70
2023-05-02T15:54:35.165Z,3.55
2023-05-02T15:57:02.535Z,4.35
2023-05-02T15:59:29.285Z,3.97
2023-05-02T16:01:56.369Z,5.25
2023-05-02T16:04:22.949Z,4.93
2023-05-02T16:06:49.549Z,6.93
2023-05-02T16:09:16.145Z,5.05
2023-05-02T16:11:42.920Z,8.02
2023-05-02T16:14:09.447Z,6.65
2023-05-02T16:16:36.131Z,6.53
2023-05-02T16:19:02.644Z,5.72
2023-05-02T16:21:29.409Z,7.65
2023-05-02T16:23:55.846Z,4.47
2023-05-02T16:26:22.635Z,3.55
2023-05-02T16:28:49.223Z,3.50
2023-05-02T16:31:15.994Z,4.72
2023-05-02T16:33:43.084Z,4.97
2023-05-02T16:36:10.299Z,7.63
2023-05-02T16:38:36.969Z,5.20
2023-05-02T16:41:05.603Z,4.30
2023-05-02T16:43:32.163Z,5.70
2023-05-02T16:46:03.450Z,5.20
2023-05-02T16:48:30.168Z,6.80
2023-05-02T16:50:57.154Z,4.05
2023-05-02T16:53:24.454Z,5.90
2023-05-02T16:55:51.010Z,4.80
2023-05-02T16:58:17.794Z,4.70
2023-05-02T17:00:44.383Z,5.30
2023-05-02T17:03:11.216Z,5.20
2023-05-02T17:05:37.963Z,3.55
2023-05-02T17:08:04.497Z,4.97
2023-05-02T17:10:31.442Z,7.55
2023-05-02T17:12:59.016Z,7.45
2023-05-02T17:15:25.580Z,5.95
2023-05-02T17:17:52.346Z,8.75
2023-05-02T17:20:20.288Z,7.32
2023-05-02T17:22:47.091Z,5.10
2023-05-02T17:25:14.012Z,5.85
2023-05-02T17:27:41.335Z,5.82
2023-05-02T17:30:08.396Z,8.38
2023-05-02T17:32:37.593Z,5.95
2023-05-02T17:35:04.740Z,5.20
2023-05-02T17:37:32.923Z,6.28
2023-05-02T17:40:01.314Z,6.85
2023-05-02T17:42:28.101Z,7.28
2023-05-02T17:44:54.534Z,6.80
2023-05-02T17:47:22.016Z,13.82
2023-05-02T17:49:51.154Z,4.57
2023-05-02T17:52:17.678Z,6.13
2023-05-02T17:54:45.100Z,6.88
2023-05-02T17:57:12.698Z,6.80
2023-05-02T17:59:39.776Z,7.68
2023-05-02T18:02:09.927Z,5.32
2023-05-02T18:04:37.184Z,4.30
2023-05-02T18:07:06.032Z,5.22
2023-05-02T18:09:32.758Z,6.85
2023-05-02T18:12:00.620Z,5.18
2023-05-02T18:14:27.038Z,4.43
2023-05-02T18:16:53.505Z,5.13
2023-05-02T18:19:20.214Z,4.07
2023-05-02T18:21:46.845Z,4.88
2023-05-02T18:24:13.392Z,4.32
2023-05-02T18:26:39.866Z,6.57
2023-05-02T18:29:06.545Z,5.82
2023-05-02T18:31:34.576Z,9.38
2023-05-02T18:34:01.373Z,4.70
2023-05-02T18:36:29.101Z,6.22
2023-05-02T18:38:56.395Z,7.80
2023-05-02T18:41:23.117Z,7.38
2023-05-02T18:43:49.603Z,5.43
2023-05-02T18:46:16.196Z,4.85
2023-05-02T18:48:43.344Z,8.35
2023-05-02T18:51:10.651Z,9.60
2023-05-02T18:53:37.850Z,7.57
2023-05-02T18:56:11.878Z,4.05
2023-05-02T18:58:38.305Z,13.40
2023-05-02T19:01:12.418Z,5.45
2023-05-02T19:03:39.332Z,6.80
2023-05-02T19:06:06.124Z,6.90
2023-05-02T19:08:32.702Z,7.30
2023-05-02T19:10:59.222Z,4.43
2023-05-02T19:13:27.849Z,5.57
2023-05-02T19:15:54.305Z,7.22
2023-05-02T19:18:23.924Z,5.80
2023-05-02T19:20:50.567Z,7.83
2023-05-02T19:23:20.480Z,10.18
2023-05-02T19:25:47.818Z,5.85
2023-05-02T19:28:16.785Z,8.27
2023-05-02T19:30:44.509Z,6.72
2023-05-02T19:33:11.585Z,5.13
2023-05-02T19:35:38.508Z,7.68
2023-05-02T19:38:04.923Z,6.78
2023-05-02T19:40:31.541Z,7.25
2023-05-02T19:42:58.075Z,7.30
2023-05-02T19:45:24.666Z,5.88
2023-05-02T19:47:51.404Z,6.47
2023-05-02T19:50:17.900Z,7.82
2023-05-02T19:52:44.942Z,5.57
2023-05-02T19:55:11.629Z,6.97
2023-05-02T19:57:38.225Z,9.02
2023-05-02T20:00:06.074Z,6.85
2023-05-02T20:02:39.260Z,8.40
2023-05-02T20:05:06.247Z,9.23
2023-05-02T20:07:32.673Z,6.65
2023-05-02T20:09:59.712Z,7.93
2023-05-02T20:12:26.425Z,10.27
2023-05-02T20:14:52.969Z,6.28
2023-05-02T20:17:19.506Z,5.05
2023-05-02T20:19:46.271Z,5.07
2023-05-02T20:22:12.817Z,6.55
2023-05-02T20:24:39.513Z,6.78
2023-05-02T20:27:05.978Z,6.70
2023-05-02T20:29:32.632Z,8.05
2023-05-02T20:31:59.346Z,11.23
2023-05-02T20:34:26.013Z,5.88
2023-05-02T20:36:52.695Z,6.88
2023-05-02T20:39:21.691Z,5.18
2023-05-02T20:41:49.740Z,5.20
2023-05-02T20:44:22.223Z,5.88
2023-05-02T20:46:48.791Z,6.82
2023-05-02T20:49:15.263Z,7.45
2023-05-02T20:51:41.690Z,5.80
2023-05-02T20:54:08.199Z,5.18
2023-05-02T20:56:34.642Z,6.35
2023-05-02T20:59:01.115Z,7.13
2023-05-02T21:01:27.630Z,8.80
2023-05-02T21:03:54.376Z,8.23
2023-05-02T21:06:21.357Z,7.07
2023-05-02T21:08:48.244Z,7.75
2023-05-02T21:11:15.479Z,6.68
2023-05-02T21:13:43.029Z,5.68
2023-05-02T21:16:20.367Z,7.25
2023-05-02T21:18:47.464Z,7.15
2023-05-02T21:21:14.108Z,7.65
2023-05-02T21:23:40.660Z,5.97
2023-05-02T21:26:08.005Z,7.85
2023-05-02T21:28:34.538Z,7.85
2023-05-02T21:31:02.083Z,7.97
2023-05-02T21:33:28.831Z,7.93
2023-05-02T21:35:59.159Z,6.95
2023-05-02T21:38:26.319Z,6.78
2023-05-02T21:40:53.587Z,8.00
2023-05-02T21:43:20.757Z,9.15
2023-05-02T21:45:49.025Z,8.65
2023-05-02T21:48:17.124Z,7.70
2023-05-02T21:50:44.805Z,8.52
2023-05-02T21:53:12.834Z,7.32
2023-05-02T21:55:40.929Z,7.93
2023-05-02T21:58:09.106Z,12.25
2023-05-02T22:00:39.986Z,13.07
2023-05-02T22:03:11.952Z,9.98
2023-05-02T22:05:39.742Z,10.68
2023-05-02T22:08:07.792Z,11.85
2023-05-02T22:10:38.527Z,8.77
2023-05-02T22:13:05.933Z,10.57
2023-05-02T22:15:32.596Z,12.07
2023-05-02T22:17:59.262Z,7.13
2023-05-02T22:20:26.095Z,9.00
2023-05-02T22:22:52.560Z,15.02
2023-05-02T22:25:19.204Z,16.90
2023-05-02T22:27:45.843Z,8.60
2023-05-02T22:30:12.397Z,10.73
2023-05-02T22:32:38.966Z,9.55
2023-05-02T22:35:06.747Z,11.32
2023-05-02T22:37:33.144Z,12.35
2023-05-02T22:39:59.924Z,10.32
2023-05-02T22:42:26.671Z,11.45
2023-05-02T22:44:54.592Z,8.40
2023-05-02T22:47:21.742Z,10.18
2023-05-02T22:49:49.068Z,9.95
2023-05-02T22:52:18.403Z,12.77
2023-05-02T22:54:44.977Z,12.38
2023-05-02T22:57:11.423Z,12.13
2023-05-02T22:59:37.951Z,7.75
2023-05-02T23:02:04.528Z,12.60
2023-05-02T23:04:32.851Z,11.00
2023-05-02T23:06:59.836Z,11.50
2023-05-02T23:09:26.410Z,10.25
2023-05-02T23:11:52.909Z,7.72
2023-05-02T23:14:23.104Z,16.02
2023-05-02T23:16:50.098Z,10.90
2023-05-02T23:19:17.029Z,13.88
2023-05-02T23:21:43.668Z,9.10
2023-05-02T23:24:10.594Z,10.15
2023-05-02T23:26:37.075Z,7.63
2023-05-02T23:29:03.716Z,12.43
2023-05-02T23:31:30.288Z,10.93
2023-05-02T23:33:56.997Z,11.15
2023-05-02T23:36:23.622Z,9.27
2023-05-02T23:38:51.609Z,11.88
2023-05-02T23:41:18.219Z,12.10
2023-05-02T23:43:44.906Z,11.00
2023-05-02T23:46:11.532Z,11.68
2023-05-02T23:48:37.950Z,9.98
2023-05-02T23:51:04.629Z,14.43
2023-05-02T23:53:31.050Z,9.77
2023-05-02T23:55:58.061Z,10.32
2023-05-02T23:58:24.508Z,7.18
